MSC Suez — HPMS — position and weather

sailwx.info

Track history (hours):
 
Tides and Currents Weather Stations Pressure Air Temp Water Temp Dewpoint Dewpoint Depression Visibility Wind Speed Wind Dir Waves Ship Positions

MSC Suez

Last reported at 2017-Mar-22 11:20 UTC. Time now 2017-Mar-23 00:16 UTC.
Position N 07°39' W 013°59'.

Length 237 m; draft 11.3 m.

Type: Ship. MMSI: 355289000.

Date/timePositionNaut miles runAvg speedWind from/ knotsBaromVisibWave heightAir tempDewpointWater temp
2017-Mar-22 11:20N 07°39' W 013°59'3217.9
2017-Mar-22 09:34N 07°58' W 014°25'1818.1
2017-Mar-22 08:33N 08°09' W 014°39'1818.4
2017-Mar-22 07:34N 08°20' W 014°54'1818.1
2017-Mar-22 06:34N 08°31' W 015°09'1817.9
2017-Mar-22 05:34N 08°42' W 015°23'1817.6
2017-Mar-22 04:34N 08°53' W 015°37'2017.6
2017-Mar-22 03:26N 09°06' W 015°53'1718.1
2017-Mar-22 02:29N 09°20' W 016°02'1718.1
2017-Mar-22 01:34N 09°34' W 016°12'1817.8
2017-Mar-22 00:34N 09°49' W 016°22'1817.8
2017-Mar-21 23:34N 10°04' W 016°32'3517.7
2017-Mar-21 21:33N 10°33' W 016°52'28517.5
2017-Mar-21 05:15N 15°11' W 017°58'74917.4
2017-Mar-19 10:18N 27°26' W 015°24'42 2.2
2017-Mar-18 15:31N 28°08' W 015°25'4 3.5
2017-Mar-18 14:31N 28°09' W 015°22'1414.3
2017-Mar-18 13:32N 28°23' W 015°18'  
2017-Mar-15 14:05N 49°02' W 005°55'1 1.9
2017-Mar-15 13:33N 49°02' W 005°54'1110.7
2017-Mar-15 12:33N 49°03' W 005°38'1818.3
2017-Mar-15 11:33N 49°10' W 005°12'2019.2
2017-Mar-15 10:31N 49°19' W 004°45'1818.6
2017-Mar-15 09:33N 49°28' W 004°21'1717.0
2017-Mar-15 08:33N 49°36' W 003°58'1414.3
2017-Mar-15 07:33N 49°44' W 003°39'1514.7
2017-Mar-15 06:33N 49°50' W 003°19'1515.1
2017-Mar-15 05:33N 49°56' W 002°57'1917.1
2017-Mar-15 04:28N 50°02' W 002°29'1818.8
2017-Mar-15 03:31N 50°02' W 002°02'1919.6
2017-Mar-15 02:34N 49°56' W 001°34'1919.4
2017-Mar-15 01:34N 49°48' W 001°06'1716.9
2017-Mar-15 00:33N 49°41' W 000°43'1514.6
2017-Mar-14 23:33N 49°38' W 000°21'1 0.8
2017-Mar-14 22:33N 49°37' W 000°20'10 9.9
2017-Mar-14 21:33N 49°32' W 000°07'1110.6
2017-Mar-14 20:33N 49°28' E 000°08'0 0.5
2017-Mar-14 19:33N 49°28' E 000°08'0 0.0
2017-Mar-14 18:33N 49°28' E 000°08'0 0.0
2017-Mar-14 17:33N 49°28' E 000°08'0 0.0
2017-Mar-14 16:33N 49°28' E 000°08'0 0.0
2017-Mar-14 15:33N 49°28' E 000°08'0 0.0
2017-Mar-14 14:33N 49°28' E 000°08'0 0.0
2017-Mar-14 13:33N 49°28' E 000°08'0 0.0
2017-Mar-14 12:33N 49°28' E 000°08'0 0.0
2017-Mar-14 11:33N 49°28' E 000°08'0 0.0
2017-Mar-14 10:33N 49°28' E 000°08'2 1.7
2017-Mar-14 09:33N 49°28' E 000°06'1212.5
2017-Mar-14 08:33N 49°37' W 000°08'1 1.3
2017-Mar-14 07:33N 49°38' W 000°09'10 9.8
2017-Mar-14 06:34N 49°48' W 000°11'1716.8
2017-Mar-14 05:33N 50°04' W 000°08'1716.6
2017-Mar-14 04:33N 50°21' W 000°09'1515.1
2017-Mar-14 03:33N 50°30' E 000°10'1717.2
2017-Mar-14 02:33N 50°37' E 000°35'1616.1
2017-Mar-14 01:34N 50°46' E 000°56'1514.7
2017-Mar-14 00:34N 50°56' E 001°13'1414.3
2017-Mar-13 23:33N 51°05' E 001°29'1716.6
2017-Mar-13 22:33N 51°19' E 001°44'1818.1
2017-Mar-13 21:33N 51°37' E 001°45'1515.0
2017-Mar-13 20:33N 51°51' E 001°36'1010.5
2017-Mar-13 19:33N 51°55' E 001°21'3 2.6
2017-Mar-13 18:32N 51°58' E 001°18'0 0.0
2017-Mar-13 17:32N 51°58' E 001°18'0 0.0
2017-Mar-13 16:33N 51°58' E 001°18'0 0.0
2017-Mar-13 15:33N 51°58' E 001°18'0 0.0
2017-Mar-13 14:33N 51°58' E 001°18'0 0.0
2017-Mar-13 13:33N 51°58' E 001°18'0 0.0
2017-Mar-13 12:33N 51°58' E 001°18'0 0.0
2017-Mar-13 11:33N 51°58' E 001°18'0 0.0
2017-Mar-13 10:33N 51°58' E 001°18'0 0.0
2017-Mar-13 09:33N 51°58' E 001°18'0 0.0
2017-Mar-13 08:33N 51°58' E 001°18'0 0.0
2017-Mar-13 07:33N 51°58' E 001°18'0 0.0
2017-Mar-13 06:33N 51°58' E 001°18'0 0.0
2017-Mar-13 05:33N 51°58' E 001°18'0 0.0
2017-Mar-13 04:32N 51°58' E 001°18'0 0.0
2017-Mar-13 03:32N 51°58' E 001°18'0 0.0
2017-Mar-13 02:32N 51°58' E 001°18'0 0.0
2017-Mar-13 01:32N 51°58' E 001°18'0 0.0
2017-Mar-13 00:32N 51°58' E 001°18'0 0.0
2017-Mar-12 23:33N 51°58' E 001°18'3 2.6
2017-Mar-12 22:33N 51°55' E 001°20'1212.1
2017-Mar-12 21:33N 51°51' E 001°39'6 6.2
2017-Mar-12 20:33N 51°49' E 001°48'6 6.0
2017-Mar-12 19:33N 51°43' E 001°51'3 2.6
2017-Mar-12 18:33N 51°41' E 001°50'10 9.9
2017-Mar-12 17:33N 51°31' E 001°53'1414.2
2017-Mar-12 16:33N 51°22' E 002°10'1515.0
2017-Mar-12 15:33N 51°23' E 002°34'1414.4
2017-Mar-12 14:34N 51°23' E 002°57'1514.9
2017-Mar-12 13:34N 51°25' E 003°21'1211.9
2017-Mar-12 12:33N 51°26' E 003°40'1110.7
2017-Mar-12 11:33N 51°23' E 003°56'  
Track history (hours):
 
Tides and Currents Weather Stations Pressure Air Temp Water Temp Dewpoint Dewpoint Depression Visibility Wind Speed Wind Dir Waves Ship Positions

MSC Suez

Last reported at 2017-Mar-22 11:20 UTC. Time now 2017-Mar-23 00:16 UTC.
Position N 07°39' W 013°59'.

Length 237 m; draft 11.3 m.

Type: Ship. MMSI: 355289000.

Date/timePositionNaut miles runAvg speedWind from/ knotsBaromVisibWave heightAir tempDewpointWater temp
2017-Mar-22 11:20N 07°39' W 013°59'3217.9
2017-Mar-22 09:34N 07°58' W 014°25'1818.1
2017-Mar-22 08:33N 08°09' W 014°39'1818.4
2017-Mar-22 07:34N 08°20' W 014°54'1818.1
2017-Mar-22 06:34N 08°31' W 015°09'1817.9
2017-Mar-22 05:34N 08°42' W 015°23'1817.6
2017-Mar-22 04:34N 08°53' W 015°37'2017.6
2017-Mar-22 03:26N 09°06' W 015°53'1718.1
2017-Mar-22 02:29N 09°20' W 016°02'1718.1
2017-Mar-22 01:34N 09°34' W 016°12'1817.8
2017-Mar-22 00:34N 09°49' W 016°22'1817.8
2017-Mar-21 23:34N 10°04' W 016°32'3517.7
2017-Mar-21 21:33N 10°33' W 016°52'28517.5
2017-Mar-21 05:15N 15°11' W 017°58'74917.4
2017-Mar-19 10:18N 27°26' W 015°24'42 2.2
2017-Mar-18 15:31N 28°08' W 015°25'4 3.5
2017-Mar-18 14:31N 28°09' W 015°22'1414.3
2017-Mar-18 13:32N 28°23' W 015°18'  
2017-Mar-15 14:05N 49°02' W 005°55'1 1.9
2017-Mar-15 13:33N 49°02' W 005°54'1110.7
2017-Mar-15 12:33N 49°03' W 005°38'1818.3
2017-Mar-15 11:33N 49°10' W 005°12'2019.2
2017-Mar-15 10:31N 49°19' W 004°45'1818.6
2017-Mar-15 09:33N 49°28' W 004°21'1717.0
2017-Mar-15 08:33N 49°36' W 003°58'1414.3
2017-Mar-15 07:33N 49°44' W 003°39'1514.7
2017-Mar-15 06:33N 49°50' W 003°19'1515.1
2017-Mar-15 05:33N 49°56' W 002°57'1917.1
2017-Mar-15 04:28N 50°02' W 002°29'1818.8
2017-Mar-15 03:31N 50°02' W 002°02'1919.6
2017-Mar-15 02:34N 49°56' W 001°34'1919.4
2017-Mar-15 01:34N 49°48' W 001°06'1716.9
2017-Mar-15 00:33N 49°41' W 000°43'1514.6
2017-Mar-14 23:33N 49°38' W 000°21'1 0.8
2017-Mar-14 22:33N 49°37' W 000°20'10 9.9
2017-Mar-14 21:33N 49°32' W 000°07'1110.6
2017-Mar-14 20:33N 49°28' E 000°08'0 0.5
2017-Mar-14 19:33N 49°28' E 000°08'0 0.0
2017-Mar-14 18:33N 49°28' E 000°08'0 0.0
2017-Mar-14 17:33N 49°28' E 000°08'0 0.0
2017-Mar-14 16:33N 49°28' E 000°08'0 0.0
2017-Mar-14 15:33N 49°28' E 000°08'0 0.0
2017-Mar-14 14:33N 49°28' E 000°08'0 0.0
2017-Mar-14 13:33N 49°28' E 000°08'0 0.0
2017-Mar-14 12:33N 49°28' E 000°08'0 0.0
2017-Mar-14 11:33N 49°28' E 000°08'0 0.0
2017-Mar-14 10:33N 49°28' E 000°08'2 1.7
2017-Mar-14 09:33N 49°28' E 000°06'1212.5
2017-Mar-14 08:33N 49°37' W 000°08'1 1.3
2017-Mar-14 07:33N 49°38' W 000°09'10 9.8
2017-Mar-14 06:34N 49°48' W 000°11'1716.8
2017-Mar-14 05:33N 50°04' W 000°08'1716.6
2017-Mar-14 04:33N 50°21' W 000°09'1515.1
2017-Mar-14 03:33N 50°30' E 000°10'1717.2
2017-Mar-14 02:33N 50°37' E 000°35'1616.1
2017-Mar-14 01:34N 50°46' E 000°56'1514.7
2017-Mar-14 00:34N 50°56' E 001°13'1414.3
2017-Mar-13 23:33N 51°05' E 001°29'1716.6
2017-Mar-13 22:33N 51°19' E 001°44'1818.1
2017-Mar-13 21:33N 51°37' E 001°45'1515.0
2017-Mar-13 20:33N 51°51' E 001°36'1010.5
2017-Mar-13 19:33N 51°55' E 001°21'3 2.6
2017-Mar-13 18:32N 51°58' E 001°18'0 0.0
2017-Mar-13 17:32N 51°58' E 001°18'0 0.0
2017-Mar-13 16:33N 51°58' E 001°18'0 0.0
2017-Mar-13 15:33N 51°58' E 001°18'0 0.0
2017-Mar-13 14:33N 51°58' E 001°18'0 0.0
2017-Mar-13 13:33N 51°58' E 001°18'0 0.0
2017-Mar-13 12:33N 51°58' E 001°18'0 0.0
2017-Mar-13 11:33N 51°58' E 001°18'0 0.0
2017-Mar-13 10:33N 51°58' E 001°18'0 0.0
2017-Mar-13 09:33N 51°58' E 001°18'0 0.0
2017-Mar-13 08:33N 51°58' E 001°18'0 0.0
2017-Mar-13 07:33N 51°58' E 001°18'0 0.0
2017-Mar-13 06:33N 51°58' E 001°18'0 0.0
2017-Mar-13 05:33N 51°58' E 001°18'0 0.0
2017-Mar-13 04:32N 51°58' E 001°18'0 0.0
2017-Mar-13 03:32N 51°58' E 001°18'0 0.0
2017-Mar-13 02:32N 51°58' E 001°18'0 0.0
2017-Mar-13 01:32N 51°58' E 001°18'0 0.0
2017-Mar-13 00:32N 51°58' E 001°18'0 0.0
2017-Mar-12 23:33N 51°58' E 001°18'3 2.6
2017-Mar-12 22:33N 51°55' E 001°20'1212.1
2017-Mar-12 21:33N 51°51' E 001°39'6 6.2
2017-Mar-12 20:33N 51°49' E 001°48'6 6.0
2017-Mar-12 19:33N 51°43' E 001°51'3 2.6
2017-Mar-12 18:33N 51°41' E 001°50'10 9.9
2017-Mar-12 17:33N 51°31' E 001°53'1414.2
2017-Mar-12 16:33N 51°22' E 002°10'1515.0
2017-Mar-12 15:33N 51°23' E 002°34'1414.4
2017-Mar-12 14:34N 51°23' E 002°57'1514.9
2017-Mar-12 13:34N 51°25' E 003°21'1211.9
2017-Mar-12 12:33N 51°26' E 003°40'1110.7
2017-Mar-12 11:33N 51°23' E 003°56'  

Dump ship's entire track history